createdAt,value
2022-08-31T00:00:01.239Z,4.20
2022-08-31T00:01:50.708Z,4.20
2022-08-31T00:03:17.573Z,4.10
2022-08-31T00:04:27.836Z,4.40
2022-08-31T00:05:34.921Z,4.10
2022-08-31T00:06:44.489Z,4.40
2022-08-31T00:07:51.538Z,4.50
2022-08-31T00:09:01.006Z,4.40
2022-08-31T00:10:22.300Z,4.00
2022-08-31T00:11:40.656Z,4.00
2022-08-31T00:12:50.452Z,4.60
2022-08-31T00:14:03.870Z,4.00
2022-08-31T00:15:11.833Z,3.90
2022-08-31T00:16:19.148Z,4.10
2022-08-31T00:17:26.192Z,4.20
2022-08-31T00:18:33.274Z,4.20
2022-08-31T00:19:41.115Z,4.00
2022-08-31T00:20:48.939Z,4.60
2022-08-31T00:21:56.007Z,4.10
2022-08-31T00:23:06.760Z,4.20
2022-08-31T00:24:15.824Z,4.40
2022-08-31T00:25:23.043Z,4.10
2022-08-31T00:26:30.154Z,4.50
2022-08-31T00:27:37.832Z,5.00
2022-08-31T00:28:44.821Z,4.00
2022-08-31T00:29:54.327Z,4.30
2022-08-31T00:31:02.804Z,3.80
2022-08-31T00:32:09.892Z,4.60
2022-08-31T00:33:17.368Z,4.30
2022-08-31T00:34:24.480Z,3.70
2022-08-31T00:35:32.551Z,4.30
2022-08-31T00:36:39.796Z,4.10
2022-08-31T00:37:47.334Z,3.90
2022-08-31T00:38:54.987Z,4.40
2022-08-31T00:40:02.018Z,4.40
2022-08-31T00:41:11.713Z,4.30
2022-08-31T00:42:19.901Z,4.20
2022-08-31T00:43:42.119Z,4.40
2022-08-31T00:44:50.326Z,4.10
2022-08-31T00:45:58.810Z,3.90
2022-08-31T00:47:08.039Z,4.20
2022-08-31T00:48:16.641Z,4.40
2022-08-31T00:49:27.921Z,3.70
2022-08-31T00:50:35.013Z,3.90
2022-08-31T00:52:01.187Z,3.80
2022-08-31T00:53:08.299Z,4.50
2022-08-31T00:54:15.379Z,4.30
2022-08-31T00:55:24.004Z,4.50
2022-08-31T00:56:32.518Z,4.10
2022-08-31T00:57:40.366Z,4.20
2022-08-31T00:58:54.376Z,4.10
2022-08-31T01:00:04.673Z,3.70
2022-08-31T01:01:14.258Z,4.20
2022-08-31T01:02:23.356Z,3.90
2022-08-31T01:03:31.559Z,4.10
2022-08-31T01:04:39.382Z,3.30
2022-08-31T01:05:46.614Z,3.80
2022-08-31T01:06:55.005Z,3.80
2022-08-31T01:08:03.468Z,4.10
2022-08-31T01:09:12.507Z,3.90
2022-08-31T01:10:21.872Z,4.10
2022-08-31T01:11:29.763Z,4.00
2022-08-31T01:12:36.826Z,3.60
2022-08-31T01:13:46.830Z,3.60
2022-08-31T01:14:55.558Z,3.60
2022-08-31T01:16:08.902Z,4.00
2022-08-31T01:17:19.317Z,3.80
2022-08-31T01:18:27.478Z,3.70
2022-08-31T01:20:07.315Z,4.40
2022-08-31T01:21:42.835Z,3.80
2022-08-31T01:23:14.299Z,4.20
2022-08-31T01:24:21.952Z,3.90
2022-08-31T01:25:33.525Z,3.60
2022-08-31T01:26:41.581Z,3.90
2022-08-31T01:27:48.560Z,4.10
2022-08-31T01:28:58.632Z,3.80
2022-08-31T01:30:07.972Z,3.70
2022-08-31T01:31:22.491Z,3.70
2022-08-31T01:32:29.850Z,3.80
2022-08-31T01:33:38.322Z,4.20
2022-08-31T01:34:45.161Z,4.00
2022-08-31T01:35:52.481Z,3.80
2022-08-31T01:36:59.661Z,4.50
2022-08-31T01:38:06.902Z,4.00
2022-08-31T01:39:14.052Z,3.90
2022-08-31T01:40:21.705Z,3.90
2022-08-31T01:41:29.246Z,3.30
2022-08-31T01:42:36.065Z,3.70
2022-08-31T01:43:43.159Z,4.20
2022-08-31T01:44:50.581Z,3.70
2022-08-31T01:46:01.401Z,3.50
2022-08-31T01:47:08.747Z,3.80
2022-08-31T01:48:16.315Z,3.70
2022-08-31T01:49:25.080Z,3.70
2022-08-31T01:50:32.849Z,3.90
2022-08-31T01:51:40.502Z,3.80
2022-08-31T01:52:48.109Z,3.60
2022-08-31T01:53:55.325Z,3.60
2022-08-31T01:55:04.946Z,3.10
2022-08-31T01:56:20.710Z,3.60
2022-08-31T01:57:34.221Z,3.50
2022-08-31T01:59:11.763Z,3.10
2022-08-31T02:00:18.943Z,3.60
2022-08-31T02:01:34.247Z,3.40
2022-08-31T02:02:43.147Z,3.40
2022-08-31T02:03:50.736Z,3.40
2022-08-31T02:05:00.792Z,3.10
2022-08-31T02:06:14.433Z,3.30
2022-08-31T02:07:21.639Z,3.30
2022-08-31T02:08:28.776Z,3.50
2022-08-31T02:09:38.914Z,3.00
2022-08-31T02:10:45.903Z,2.70
2022-08-31T02:11:53.482Z,3.10
2022-08-31T02:13:00.786Z,3.40
2022-08-31T02:14:11.306Z,3.00
2022-08-31T02:15:18.585Z,3.30
2022-08-31T02:16:29.600Z,3.40
2022-08-31T02:17:36.924Z,3.60
2022-08-31T02:18:45.267Z,3.80
2022-08-31T02:19:53.119Z,3.70
2022-08-31T02:21:00.713Z,3.30
2022-08-31T02:22:08.917Z,3.10
2022-08-31T02:23:16.548Z,3.00
2022-08-31T02:24:23.815Z,2.80
2022-08-31T02:25:31.461Z,3.20
2022-08-31T02:26:40.231Z,3.00
2022-08-31T02:27:47.531Z,2.90
2022-08-31T02:28:55.439Z,3.30
2022-08-31T02:30:02.561Z,3.00
2022-08-31T02:31:09.980Z,3.10
2022-08-31T02:32:20.011Z,3.00
2022-08-31T02:33:28.036Z,3.10
2022-08-31T02:34:37.063Z,2.90
2022-08-31T02:35:44.620Z,2.80
2022-08-31T02:36:51.601Z,3.30
2022-08-31T02:37:58.798Z,3.00
2022-08-31T02:39:06.504Z,3.00
2022-08-31T02:40:13.658Z,3.10
2022-08-31T02:41:22.451Z,3.00
2022-08-31T02:42:33.051Z,3.30
2022-08-31T02:43:59.052Z,3.20
2022-08-31T02:45:07.382Z,3.10
2022-08-31T02:46:14.671Z,3.10
2022-08-31T02:47:28.856Z,2.60
2022-08-31T02:48:58.725Z,2.70
2022-08-31T02:50:07.083Z,3.00
2022-08-31T02:51:14.015Z,3.20
2022-08-31T02:52:21.083Z,2.80
2022-08-31T02:53:29.295Z,2.80
2022-08-31T02:54:36.612Z,2.80
2022-08-31T02:55:44.531Z,2.90
2022-08-31T02:56:51.629Z,2.80
2022-08-31T02:57:59.703Z,2.90
2022-08-31T02:59:09.554Z,3.10
2022-08-31T03:00:16.785Z,3.10
2022-08-31T03:01:24.640Z,3.20
2022-08-31T03:02:32.416Z,2.80
2022-08-31T03:03:40.163Z,2.80
2022-08-31T03:04:48.205Z,2.70
2022-08-31T03:05:55.945Z,2.80
2022-08-31T03:07:03.253Z,3.00
2022-08-31T03:08:11.067Z,3.00
2022-08-31T03:09:18.785Z,3.20
2022-08-31T03:10:26.676Z,2.60
2022-08-31T03:11:34.335Z,3.00
2022-08-31T03:12:42.454Z,3.30
2022-08-31T03:13:49.793Z,3.20
2022-08-31T03:14:56.865Z,3.50
2022-08-31T03:16:04.909Z,3.40
2022-08-31T03:17:12.677Z,3.40
2022-08-31T03:18:20.599Z,3.70
2022-08-31T03:19:28.395Z,3.30
2022-08-31T03:20:36.668Z,3.30
2022-08-31T03:21:47.558Z,3.50
2022-08-31T03:23:06.588Z,3.20
2022-08-31T03:24:19.847Z,3.50
2022-08-31T03:25:29.557Z,3.60
2022-08-31T03:26:36.798Z,3.30
2022-08-31T03:27:44.584Z,3.50
2022-08-31T03:28:52.584Z,3.50
2022-08-31T03:30:35.872Z,3.50
2022-08-31T03:31:47.483Z,3.60
2022-08-31T03:32:57.257Z,3.50
2022-08-31T03:34:15.946Z,3.70
2022-08-31T03:35:25.082Z,2.80
2022-08-31T03:36:33.758Z,3.30
2022-08-31T03:37:41.082Z,3.60
2022-08-31T03:38:49.208Z,3.40
2022-08-31T03:39:58.775Z,3.80
2022-08-31T03:41:07.402Z,2.90
2022-08-31T03:42:19.020Z,3.20
2022-08-31T03:43:28.921Z,3.50
2022-08-31T03:44:36.721Z,3.40
2022-08-31T03:45:44.355Z,3.50
2022-08-31T03:46:52.046Z,3.30
2022-08-31T03:48:00.854Z,3.80
2022-08-31T03:49:08.982Z,3.40
2022-08-31T03:50:23.575Z,3.50
2022-08-31T03:51:41.406Z,3.10
2022-08-31T03:52:49.593Z,3.40
2022-08-31T03:53:58.737Z,2.90
2022-08-31T03:55:06.034Z,3.30
2022-08-31T03:56:13.153Z,3.40
2022-08-31T03:57:21.536Z,3.40
2022-08-31T03:58:28.615Z,3.10
2022-08-31T03:59:35.806Z,3.20
2022-08-31T04:00:59.502Z,3.70
2022-08-31T04:02:25.435Z,3.20
2022-08-31T04:03:50.994Z,3.10
2022-08-31T04:05:24.114Z,3.40
2022-08-31T04:06:49.764Z,3.40
2022-08-31T04:08:17.362Z,3.80
2022-08-31T04:09:25.836Z,3.30
2022-08-31T04:10:53.013Z,4.10
2022-08-31T04:12:17.363Z,3.70
2022-08-31T04:13:47.467Z,3.50
2022-08-31T04:15:17.910Z,3.40
2022-08-31T04:16:44.845Z,3.90
2022-08-31T04:18:12.503Z,3.50
2022-08-31T04:19:27.135Z,3.40
2022-08-31T04:20:39.528Z,3.50
2022-08-31T04:21:47.212Z,3.20
2022-08-31T04:22:54.168Z,3.60
2022-08-31T04:24:15.327Z,3.20
2022-08-31T04:25:22.896Z,3.20
2022-08-31T04:26:31.595Z,3.90
2022-08-31T04:27:41.517Z,3.60
2022-08-31T04:28:48.495Z,3.30
2022-08-31T04:29:55.623Z,4.00
2022-08-31T04:31:10.794Z,3.70
2022-08-31T04:32:21.125Z,3.80
2022-08-31T04:33:29.324Z,3.60
2022-08-31T04:34:38.390Z,3.30
2022-08-31T04:35:46.925Z,3.30
2022-08-31T04:36:54.940Z,3.30
2022-08-31T04:38:03.253Z,3.40
2022-08-31T04:39:12.915Z,2.90
2022-08-31T04:40:25.660Z,3.20
2022-08-31T04:41:34.699Z,3.20
2022-08-31T04:42:42.339Z,3.20
2022-08-31T04:43:56.214Z,3.40
2022-08-31T04:45:05.646Z,3.30
2022-08-31T04:46:14.705Z,3.50
2022-08-31T04:47:23.109Z,3.00
2022-08-31T04:48:31.400Z,3.50
2022-08-31T04:49:38.746Z,3.30
2022-08-31T04:50:46.701Z,3.20
2022-08-31T04:51:54.606Z,3.40
2022-08-31T04:53:03.649Z,3.40
2022-08-31T04:54:13.164Z,3.50
2022-08-31T04:55:23.154Z,3.10
2022-08-31T04:56:36.752Z,3.20
2022-08-31T04:57:45.004Z,3.00
2022-08-31T04:58:54.778Z,3.40
2022-08-31T05:00:02.891Z,3.00
2022-08-31T05:01:36.293Z,3.40
2022-08-31T05:03:15.884Z,3.50
2022-08-31T05:04:30.815Z,3.40
2022-08-31T05:05:42.254Z,3.20
2022-08-31T05:06:50.356Z,3.30
2022-08-31T05:07:58.445Z,3.20
2022-08-31T05:09:13.907Z,3.40
2022-08-31T05:10:24.679Z,3.80
2022-08-31T05:11:32.499Z,3.70
2022-08-31T05:12:39.848Z,3.90
2022-08-31T05:13:48.533Z,4.20
2022-08-31T05:14:56.143Z,4.20
2022-08-31T05:16:11.697Z,3.80
2022-08-31T05:17:20.657Z,4.10
2022-08-31T05:18:28.809Z,4.20
2022-08-31T05:19:40.977Z,4.70
2022-08-31T05:20:49.965Z,4.20
2022-08-31T05:21:57.704Z,4.40
2022-08-31T05:23:05.984Z,4.20
2022-08-31T05:24:14.115Z,4.30
2022-08-31T05:25:22.934Z,4.20
2022-08-31T05:26:34.035Z,4.80
2022-08-31T05:27:42.831Z,4.10
2022-08-31T05:28:53.106Z,4.60
2022-08-31T05:30:01.013Z,4.60
2022-08-31T05:31:31.222Z,4.10
2022-08-31T05:32:39.420Z,4.20
2022-08-31T05:33:48.601Z,4.70
2022-08-31T05:34:57.974Z,4.20
2022-08-31T05:36:08.357Z,4.60
2022-08-31T05:37:20.062Z,4.90
2022-08-31T05:38:33.326Z,4.50
2022-08-31T05:39:43.731Z,4.30
2022-08-31T05:40:55.935Z,4.30
2022-08-31T05:42:04.521Z,4.40
2022-08-31T05:43:13.329Z,4.30
2022-08-31T05:44:23.648Z,4.20
2022-08-31T05:45:37.138Z,4.40
2022-08-31T05:46:45.060Z,4.50
2022-08-31T05:48:03.218Z,4.80
2022-08-31T05:49:13.316Z,4.00
2022-08-31T05:50:22.028Z,4.50
2022-08-31T05:51:29.657Z,4.70
2022-08-31T05:52:36.922Z,4.50
2022-08-31T05:53:44.216Z,4.30
2022-08-31T05:54:51.498Z,4.40
2022-08-31T05:56:07.948Z,4.40
2022-08-31T05:57:14.917Z,4.50
2022-08-31T05:58:23.008Z,4.60
2022-08-31T05:59:30.410Z,4.90
2022-08-31T06:00:40.327Z,4.90
2022-08-31T06:02:20.320Z,4.70
2022-08-31T06:03:27.739Z,5.50
2022-08-31T06:04:35.881Z,4.50
2022-08-31T06:05:43.540Z,4.60
2022-08-31T06:06:51.208Z,4.60
2022-08-31T06:08:00.623Z,5.20
2022-08-31T06:09:08.722Z,4.70
2022-08-31T06:10:16.807Z,4.50
2022-08-31T06:11:25.790Z,4.60
2022-08-31T06:12:37.591Z,4.90
2022-08-31T06:13:44.883Z,4.90
2022-08-31T06:14:53.459Z,4.00
2022-08-31T06:16:03.632Z,4.70
2022-08-31T06:17:10.762Z,4.50
2022-08-31T06:18:17.941Z,4.90
2022-08-31T06:19:25.370Z,4.70
2022-08-31T06:20:33.201Z,4.80
2022-08-31T06:21:49.918Z,5.00
2022-08-31T06:23:08.390Z,4.50
2022-08-31T06:24:28.238Z,4.10
2022-08-31T06:25:37.876Z,4.30
2022-08-31T06:26:44.971Z,4.40
2022-08-31T06:27:57.813Z,4.30
2022-08-31T06:29:06.523Z,4.70
2022-08-31T06:30:23.142Z,4.10
2022-08-31T06:31:38.894Z,4.30
2022-08-31T06:32:48.463Z,4.00
2022-08-31T06:34:03.092Z,4.40
2022-08-31T06:35:41.479Z,4.10
2022-08-31T06:37:07.121Z,3.70
2022-08-31T06:38:23.022Z,4.10
2022-08-31T06:40:06.150Z,3.90
2022-08-31T06:41:25.870Z,4.20
2022-08-31T06:42:51.552Z,4.60
2022-08-31T06:44:13.811Z,4.20
2022-08-31T06:45:37.213Z,4.30
2022-08-31T06:47:08.136Z,3.80
2022-08-31T06:48:19.360Z,3.90
2022-08-31T06:49:28.058Z,3.90
2022-08-31T06:50:35.319Z,3.70
2022-08-31T06:51:44.660Z,4.00
2022-08-31T06:52:51.662Z,4.70
2022-08-31T06:54:21.399Z,4.60
2022-08-31T06:55:48.512Z,4.50
2022-08-31T06:57:14.353Z,4.70
2022-08-31T06:58:40.300Z,3.90
2022-08-31T07:00:20.213Z,4.10
2022-08-31T07:01:48.186Z,4.20
2022-08-31T07:03:34.293Z,4.40
2022-08-31T07:04:42.263Z,4.50
2022-08-31T07:05:50.162Z,4.40
2022-08-31T07:06:57.499Z,4.80
2022-08-31T07:08:06.082Z,4.20
2022-08-31T07:09:17.162Z,4.10
2022-08-31T07:10:24.307Z,4.10
2022-08-31T07:11:36.948Z,4.10
2022-08-31T07:12:46.920Z,5.10
2022-08-31T07:13:55.179Z,4.80
2022-08-31T07:15:04.287Z,4.00
2022-08-31T07:16:20.026Z,4.40
2022-08-31T07:17:28.933Z,4.10
2022-08-31T07:18:37.745Z,4.30
2022-08-31T07:19:45.124Z,5.00
2022-08-31T07:20:53.027Z,5.10
2022-08-31T07:22:07.398Z,4.20
2022-08-31T07:23:14.517Z,4.10
2022-08-31T07:24:34.390Z,4.00
2022-08-31T07:25:42.498Z,4.30
2022-08-31T07:26:50.778Z,4.60
2022-08-31T07:28:03.793Z,4.10
2022-08-31T07:29:16.975Z,4.40
2022-08-31T07:30:25.254Z,4.60
2022-08-31T07:31:50.053Z,4.40
2022-08-31T07:32:59.068Z,4.90
2022-08-31T07:34:12.640Z,4.50
2022-08-31T07:35:32.859Z,4.80
2022-08-31T07:37:37.544Z,3.90
2022-08-31T07:39:05.110Z,4.10
2022-08-31T07:40:36.649Z,4.20
2022-08-31T07:42:04.914Z,4.00
2022-08-31T07:43:13.392Z,4.70
2022-08-31T07:44:25.665Z,4.10
2022-08-31T07:45:35.839Z,4.80
2022-08-31T07:46:47.246Z,4.60
2022-08-31T07:47:56.591Z,4.30
2022-08-31T07:49:15.203Z,4.10
2022-08-31T07:50:48.339Z,4.10
2022-08-31T07:52:14.513Z,4.50
2022-08-31T07:53:44.425Z,4.10
2022-08-31T07:55:26.870Z,4.60
2022-08-31T07:56:39.946Z,4.40
2022-08-31T07:57:55.557Z,4.30
2022-08-31T07:59:10.958Z,4.40
2022-08-31T08:00:23.410Z,3.90
2022-08-31T08:01:36.036Z,4.70
2022-08-31T08:02:52.995Z,4.90
2022-08-31T08:04:08.055Z,4.30
2022-08-31T08:05:43.415Z,4.10
2022-08-31T08:07:14.950Z,4.70
2022-08-31T08:08:34.014Z,4.20
2022-08-31T08:09:45.842Z,4.20
2022-08-31T08:11:07.898Z,4.60
2022-08-31T08:12:51.705Z,4.50
2022-08-31T08:14:09.634Z,4.80
2022-08-31T08:15:44.571Z,4.80
2022-08-31T08:17:21.504Z,5.10
2022-08-31T08:18:33.613Z,4.50
2022-08-31T08:19:42.454Z,4.40
2022-08-31T08:20:49.878Z,5.20
2022-08-31T08:21:58.615Z,4.80
2022-08-31T08:23:13.638Z,4.80
2022-08-31T08:24:41.094Z,4.70
2022-08-31T08:26:21.078Z,4.80
2022-08-31T08:27:44.882Z,4.80
2022-08-31T08:29:07.253Z,5.30
2022-08-31T08:30:18.735Z,5.20
2022-08-31T08:31:26.136Z,4.80
2022-08-31T08:32:33.301Z,4.90
2022-08-31T08:33:41.015Z,4.80
2022-08-31T08:34:48.690Z,4.90
2022-08-31T08:36:01.878Z,5.00
2022-08-31T08:37:10.933Z,4.30
2022-08-31T08:38:21.649Z,4.70
2022-08-31T08:39:29.559Z,4.50
2022-08-31T08:41:04.661Z,5.80
2022-08-31T08:42:13.727Z,4.50
2022-08-31T08:43:22.681Z,5.00
2022-08-31T08:44:30.494Z,4.70
2022-08-31T08:45:40.986Z,5.00
2022-08-31T08:46:58.922Z,5.00
2022-08-31T08:48:19.404Z,4.90
2022-08-31T08:49:32.653Z,4.70
2022-08-31T08:50:40.873Z,4.30
2022-08-31T08:51:51.224Z,4.90
2022-08-31T08:53:00.325Z,4.70
2022-08-31T08:54:20.834Z,4.40
2022-08-31T08:55:33.221Z,4.90
2022-08-31T08:56:43.318Z,5.30
2022-08-31T08:57:57.558Z,5.20
2022-08-31T08:59:10.553Z,4.80
2022-08-31T09:00:23.371Z,4.80
2022-08-31T09:01:37.783Z,5.00
2022-08-31T09:03:00.055Z,5.30
2022-08-31T09:05:00.922Z,4.30
2022-08-31T09:06:26.762Z,4.70
2022-08-31T09:08:02.602Z,4.80
2022-08-31T09:09:31.736Z,7.70
2022-08-31T09:10:43.373Z,7.30
2022-08-31T09:12:14.553Z,5.60
2022-08-31T09:13:33.266Z,5.10
2022-08-31T09:15:02.167Z,4.50
2022-08-31T09:16:27.654Z,4.50
2022-08-31T09:17:55.837Z,4.40
2022-08-31T09:19:15.905Z,4.80
2022-08-31T09:20:23.392Z,4.40
2022-08-31T09:21:35.287Z,5.00
2022-08-31T09:22:53.518Z,4.70
2022-08-31T09:24:07.135Z,4.90
2022-08-31T09:25:47.597Z,4.30
2022-08-31T09:27:19.739Z,4.30
2022-08-31T09:28:46.508Z,4.80
2022-08-31T09:30:02.317Z,5.00
2022-08-31T09:31:11.600Z,5.10
2022-08-31T09:32:26.355Z,5.50
2022-08-31T09:33:37.838Z,4.60
2022-08-31T09:34:45.449Z,4.60
2022-08-31T09:35:59.029Z,4.90
2022-08-31T09:37:48.448Z,4.90
2022-08-31T09:38:58.958Z,4.40
2022-08-31T09:40:37.765Z,4.60
2022-08-31T09:41:45.048Z,4.20
2022-08-31T09:43:29.424Z,4.50
2022-08-31T09:44:38.036Z,4.70
2022-08-31T09:46:13.381Z,4.80
2022-08-31T09:47:50.858Z,4.40
2022-08-31T09:49:00.297Z,5.10
2022-08-31T09:50:11.419Z,5.40
2022-08-31T09:51:28.472Z,5.10
2022-08-31T09:52:55.484Z,5.40
2022-08-31T09:54:46.905Z,5.60
2022-08-31T09:56:18.068Z,4.80
2022-08-31T09:57:52.459Z,5.00
2022-08-31T09:59:03.178Z,5.60
2022-08-31T10:00:16.705Z,5.30
2022-08-31T10:01:39.992Z,5.20
2022-08-31T10:02:47.699Z,5.20
2022-08-31T10:04:11.580Z,5.70
2022-08-31T10:05:42.007Z,4.90
2022-08-31T10:07:08.909Z,5.10
2022-08-31T10:08:32.990Z,5.60
2022-08-31T10:09:46.600Z,5.10
2022-08-31T10:10:54.497Z,5.20
2022-08-31T10:12:03.094Z,5.80
2022-08-31T10:13:29.562Z,5.90
2022-08-31T10:14:51.954Z,6.10
2022-08-31T10:16:01.430Z,6.30
2022-08-31T10:17:18.964Z,5.90
2022-08-31T10:18:31.267Z,5.90
2022-08-31T10:20:00.156Z,5.80
2022-08-31T10:21:42.183Z,5.90
2022-08-31T10:23:00.644Z,5.10
2022-08-31T10:24:22.453Z,5.10
2022-08-31T10:25:44.296Z,5.50
2022-08-31T10:26:54.591Z,5.40
2022-08-31T10:28:09.692Z,5.80
2022-08-31T10:29:43.132Z,5.60
2022-08-31T10:31:01.212Z,5.30
2022-08-31T10:32:32.493Z,5.10
2022-08-31T10:34:07.211Z,5.00
2022-08-31T10:35:19.322Z,5.50
2022-08-31T10:36:32.521Z,4.80
2022-08-31T10:37:51.482Z,5.20
2022-08-31T10:38:59.484Z,4.90
2022-08-31T10:40:14.692Z,5.20
2022-08-31T10:41:27.615Z,5.20
2022-08-31T10:42:44.338Z,5.00
2022-08-31T10:44:06.827Z,5.30
2022-08-31T10:45:21.032Z,4.80
2022-08-31T10:46:30.600Z,4.60
2022-08-31T10:47:42.890Z,4.60
2022-08-31T10:48:54.901Z,5.00
2022-08-31T10:50:02.529Z,4.30
2022-08-31T10:51:24.580Z,4.70
2022-08-31T10:52:36.408Z,5.00
2022-08-31T10:54:09.099Z,5.10
2022-08-31T10:55:30.907Z,4.90
2022-08-31T10:57:00.820Z,5.00
2022-08-31T10:58:18.627Z,5.00
2022-08-31T10:59:46.409Z,4.50
2022-08-31T11:01:32.001Z,4.50
2022-08-31T11:02:58.103Z,4.60
2022-08-31T11:04:43.738Z,4.90
2022-08-31T11:06:24.625Z,4.90
2022-08-31T11:07:50.182Z,4.50
2022-08-31T11:09:05.732Z,5.40
2022-08-31T11:10:21.291Z,5.20
2022-08-31T11:11:59.316Z,4.70
2022-08-31T11:13:10.355Z,5.60
2022-08-31T11:14:50.962Z,5.40
2022-08-31T11:16:05.117Z,5.00
2022-08-31T11:17:40.214Z,5.10
2022-08-31T11:18:47.287Z,5.00
2022-08-31T11:20:13.359Z,5.20
2022-08-31T11:21:46.693Z,5.60
2022-08-31T11:23:16.205Z,5.20
2022-08-31T11:24:38.165Z,5.20
2022-08-31T11:26:10.689Z,5.00
2022-08-31T11:27:29.385Z,5.50
2022-08-31T11:28:41.787Z,5.30
2022-08-31T11:30:04.609Z,5.10
2022-08-31T11:31:25.584Z,4.90
2022-08-31T11:32:39.576Z,5.40
2022-08-31T11:34:14.723Z,5.70
2022-08-31T11:35:42.159Z,5.40
2022-08-31T11:36:58.672Z,5.40
2022-08-31T11:38:07.276Z,5.60
2022-08-31T11:39:50.875Z,5.40
2022-08-31T11:41:01.960Z,5.30
2022-08-31T11:42:13.778Z,5.20
2022-08-31T11:43:36.722Z,4.90
2022-08-31T11:44:45.710Z,5.90
2022-08-31T11:45:53.854Z,5.20
2022-08-31T11:47:08.051Z,5.40
2022-08-31T11:48:52.560Z,5.70
2022-08-31T11:50:07.208Z,5.30
2022-08-31T11:51:16.570Z,6.40
2022-08-31T11:52:44.362Z,6.10
2022-08-31T11:53:52.902Z,5.70
2022-08-31T11:55:31.534Z,5.90
2022-08-31T11:56:40.329Z,5.70
2022-08-31T11:58:08.661Z,5.90
2022-08-31T11:59:35.160Z,5.70
2022-08-31T12:01:00.136Z,5.90
2022-08-31T12:02:22.628Z,5.10
2022-08-31T12:03:47.861Z,5.50
2022-08-31T12:04:58.740Z,6.10
2022-08-31T12:06:07.286Z,5.90
2022-08-31T12:07:18.091Z,6.10
2022-08-31T12:08:29.512Z,6.60
2022-08-31T12:09:55.131Z,8.80
2022-08-31T12:11:34.107Z,7.60
2022-08-31T12:13:20.951Z,7.20
2022-08-31T12:14:52.600Z,5.90
2022-08-31T12:16:04.399Z,5.50
2022-08-31T12:17:32.490Z,5.40
2022-08-31T12:19:01.390Z,5.30
2022-08-31T12:20:36.090Z,5.90
2022-08-31T12:22:07.244Z,5.30
2022-08-31T12:23:41.065Z,5.00
2022-08-31T12:25:08.035Z,5.10
2022-08-31T12:26:32.792Z,5.00
2022-08-31T12:28:04.372Z,5.60
2022-08-31T12:29:28.533Z,5.50
2022-08-31T12:30:37.572Z,5.30
2022-08-31T12:31:45.174Z,4.90
2022-08-31T12:33:22.553Z,5.20
2022-08-31T12:34:30.669Z,5.20
2022-08-31T12:35:38.379Z,5.50
2022-08-31T12:36:45.611Z,5.70
2022-08-31T12:38:24.952Z,6.10
2022-08-31T12:39:34.253Z,5.80
2022-08-31T12:41:08.683Z,6.20
2022-08-31T12:42:17.453Z,5.60
2022-08-31T12:43:34.216Z,5.50
2022-08-31T12:44:52.772Z,5.70
2022-08-31T12:46:50.881Z,5.10
2022-08-31T12:48:20.376Z,5.10
2022-08-31T12:49:38.329Z,5.50
2022-08-31T12:50:48.773Z,5.30
2022-08-31T12:51:59.883Z,5.40
2022-08-31T12:53:44.640Z,5.70
2022-08-31T12:55:09.510Z,5.60
2022-08-31T12:56:29.669Z,5.80
2022-08-31T12:58:00.771Z,5.30
2022-08-31T12:59:19.442Z,5.90
2022-08-31T13:00:39.270Z,5.90
2022-08-31T13:01:49.688Z,5.80
2022-08-31T13:03:02.244Z,5.50
2022-08-31T13:04:11.323Z,5.40
2022-08-31T13:05:30.436Z,5.60
2022-08-31T13:06:39.872Z,5.70
2022-08-31T13:07:47.402Z,5.70
2022-08-31T13:08:55.912Z,5.80
2022-08-31T13:10:10.777Z,5.10
2022-08-31T13:11:35.236Z,5.40
2022-08-31T13:12:57.014Z,5.30
2022-08-31T13:14:28.189Z,5.90
2022-08-31T13:15:43.397Z,5.40
2022-08-31T13:16:52.435Z,5.80
2022-08-31T13:18:03.637Z,5.60
2022-08-31T13:19:17.968Z,5.70
2022-08-31T13:20:28.537Z,5.50
2022-08-31T13:21:37.856Z,5.10
2022-08-31T13:22:50.764Z,5.50
2022-08-31T13:24:08.733Z,5.20
2022-08-31T13:25:38.698Z,5.00
2022-08-31T13:26:47.021Z,5.40
2022-08-31T13:27:54.769Z,5.60
2022-08-31T13:29:05.481Z,6.10
2022-08-31T13:30:21.210Z,7.10
2022-08-31T13:31:36.912Z,5.20
2022-08-31T13:32:46.694Z,6.10
2022-08-31T13:33:58.947Z,6.90
2022-08-31T13:35:13.131Z,5.70
2022-08-31T13:36:34.449Z,6.30
2022-08-31T13:38:08.221Z,6.20
2022-08-31T13:39:23.080Z,6.10
2022-08-31T13:40:31.788Z,5.70
2022-08-31T13:41:41.869Z,6.00
2022-08-31T13:42:54.424Z,5.50
2022-08-31T13:44:11.910Z,5.50
2022-08-31T13:45:33.340Z,5.20
2022-08-31T13:46:44.853Z,5.40
2022-08-31T13:48:03.441Z,6.10
2022-08-31T13:49:23.849Z,5.50
2022-08-31T13:50:53.355Z,5.30
2022-08-31T13:52:01.809Z,5.10
2022-08-31T13:53:27.281Z,6.20
2022-08-31T13:54:37.293Z,5.20
2022-08-31T13:55:44.911Z,5.30
2022-08-31T13:57:00.257Z,5.40
2022-08-31T13:58:48.534Z,5.20
2022-08-31T13:59:57.323Z,5.70
2022-08-31T14:01:29.239Z,5.40
2022-08-31T14:02:40.768Z,5.60
2022-08-31T14:04:02.158Z,5.70
2022-08-31T14:05:12.174Z,6.10
2022-08-31T14:06:27.871Z,6.10
2022-08-31T14:07:57.357Z,5.20
2022-08-31T14:09:16.819Z,5.30
2022-08-31T14:10:28.643Z,5.90
2022-08-31T14:11:37.194Z,5.60
2022-08-31T14:12:52.106Z,6.10
2022-08-31T14:14:07.577Z,5.30
2022-08-31T14:15:20.262Z,5.70
2022-08-31T14:16:34.371Z,5.60
2022-08-31T14:18:24.005Z,5.80
2022-08-31T14:19:14.142Z,5.60
2022-08-31T14:21:03.722Z,5.90
2022-08-31T14:22:29.863Z,5.60
2022-08-31T14:23:41.148Z,5.50
2022-08-31T14:24:48.953Z,5.40
2022-08-31T14:25:58.925Z,5.60
2022-08-31T14:27:08.714Z,5.80
2022-08-31T14:28:18.182Z,5.50
2022-08-31T14:29:27.822Z,5.40
2022-08-31T14:30:37.070Z,6.00
2022-08-31T14:31:58.229Z,6.00
2022-08-31T14:33:13.506Z,6.00
2022-08-31T14:34:24.196Z,6.30
2022-08-31T14:35:32.049Z,6.20
2022-08-31T14:37:02.597Z,6.30
2022-08-31T14:38:19.936Z,6.70
2022-08-31T14:39:36.459Z,6.80
2022-08-31T14:40:45.031Z,5.60
2022-08-31T14:41:53.773Z,6.00
2022-08-31T14:43:01.610Z,5.90
2022-08-31T14:44:11.404Z,6.50
2022-08-31T14:45:20.860Z,6.50
2022-08-31T14:46:29.778Z,6.70
2022-08-31T14:47:44.327Z,6.70
2022-08-31T14:48:51.587Z,6.70
2022-08-31T14:50:07.251Z,6.00
2022-08-31T14:51:15.737Z,5.90
2022-08-31T14:52:25.770Z,6.30
2022-08-31T14:53:35.532Z,5.90
2022-08-31T14:54:43.910Z,6.00
2022-08-31T14:55:51.020Z,5.90
2022-08-31T14:57:00.147Z,5.40
2022-08-31T14:58:12.112Z,5.30
2022-08-31T14:59:22.789Z,5.30
2022-08-31T15:00:32.910Z,5.80
2022-08-31T15:01:41.600Z,5.50
2022-08-31T15:02:54.690Z,5.40
2022-08-31T15:04:05.617Z,5.60
2022-08-31T15:05:13.810Z,6.00
2022-08-31T15:06:22.298Z,5.70
2022-08-31T15:07:32.964Z,5.40
2022-08-31T15:08:42.331Z,5.90
2022-08-31T15:09:50.334Z,6.20
2022-08-31T15:10:58.381Z,5.30
2022-08-31T15:12:08.539Z,5.80
2022-08-31T15:13:18.186Z,6.30
2022-08-31T15:14:27.570Z,6.40
2022-08-31T15:15:36.160Z,6.20
2022-08-31T15:16:45.162Z,5.80
2022-08-31T15:17:53.516Z,5.70
2022-08-31T15:19:01.544Z,6.30
2022-08-31T15:20:13.027Z,6.90
2022-08-31T15:21:21.817Z,6.00
2022-08-31T15:22:29.464Z,7.00
2022-08-31T15:23:37.812Z,6.10
2022-08-31T15:24:47.920Z,5.70
2022-08-31T15:26:14.562Z,6.60
2022-08-31T15:27:24.041Z,6.20
2022-08-31T15:28:33.140Z,6.40
2022-08-31T15:29:42.022Z,5.90
2022-08-31T15:30:49.018Z,5.70
2022-08-31T15:31:56.535Z,5.70
2022-08-31T15:33:04.014Z,5.60
2022-08-31T15:34:10.980Z,5.70
2022-08-31T15:35:20.641Z,6.20
2022-08-31T15:36:28.377Z,6.50
2022-08-31T15:37:35.373Z,6.30
2022-08-31T15:38:44.466Z,6.10
2022-08-31T15:39:54.180Z,6.00
2022-08-31T15:41:01.292Z,6.40
2022-08-31T15:42:12.630Z,6.10
2022-08-31T15:43:19.979Z,5.70
2022-08-31T15:44:27.236Z,5.80
2022-08-31T15:45:34.410Z,6.40
2022-08-31T15:46:59.767Z,6.20
2022-08-31T15:48:25.494Z,6.20
2022-08-31T15:49:33.337Z,6.40
2022-08-31T15:50:41.258Z,6.50
2022-08-31T15:51:51.521Z,6.10
2022-08-31T15:53:09.446Z,6.20
2022-08-31T15:54:22.714Z,5.90
2022-08-31T15:55:30.657Z,5.50
2022-08-31T15:56:42.301Z,6.40
2022-08-31T15:57:49.708Z,6.50
2022-08-31T15:58:59.855Z,5.80
2022-08-31T16:00:07.970Z,5.80
2022-08-31T16:01:17.351Z,5.30
2022-08-31T16:02:24.390Z,5.90
2022-08-31T16:03:34.929Z,5.60
2022-08-31T16:04:47.536Z,5.40
2022-08-31T16:05:55.736Z,5.00
2022-08-31T16:07:06.243Z,5.20
2022-08-31T16:08:14.640Z,4.90
2022-08-31T16:09:24.188Z,4.80
2022-08-31T16:10:33.768Z,5.10
2022-08-31T16:11:42.359Z,4.90
2022-08-31T16:12:51.628Z,4.50
2022-08-31T16:14:01.487Z,5.10
2022-08-31T16:15:13.004Z,4.60
2022-08-31T16:16:22.974Z,5.00
2022-08-31T16:17:33.823Z,5.00
2022-08-31T16:18:42.622Z,4.80
2022-08-31T16:19:50.802Z,5.10
2022-08-31T16:21:06.146Z,4.40
2022-08-31T16:22:15.700Z,5.00
2022-08-31T16:23:26.479Z,4.80
2022-08-31T16:24:37.261Z,5.30
2022-08-31T16:25:49.509Z,4.90
2022-08-31T16:26:58.830Z,4.80
2022-08-31T16:28:07.440Z,4.30
2022-08-31T16:29:16.987Z,4.70
2022-08-31T16:30:24.538Z,5.10
2022-08-31T16:31:32.271Z,4.60
2022-08-31T16:32:39.467Z,4.20
2022-08-31T16:33:46.278Z,4.80
2022-08-31T16:34:53.881Z,4.60